Time;durP1;ratioP1;P1;durP2;ratioP2;P2;SDS_P1;SDS_P2;PMS_P1;PMS_P2;Temp;Humidity;BMP_temperature;BMP_pressure;BME280_temperature;BME280_humidity;BME280_pressure;Samples;Min_cycle;Max_cycle;Signal;HPM_P1;HPM_P2
2022/04/20 00:00:15;;;;;;;989.97;924.78;;;;;;;10.89;47.77;101235.31;685161;28;44423;-69
2022/04/20 00:00:36;;;;;;;990.90;925.60;;;;;;;10.92;48.02;101237.69;683918;28;69764;-68
2022/04/20 00:00:57;;;;;;;990.80;925.45;;;;;;;10.91;48.00;101233.31;686015;28;21606;-70
2022/04/20 00:01:19;;;;;;;981.25;916.35;;;;;;;10.93;48.15;101241.25;685221;28;23440;-69
2022/04/20 00:01:42;;;;;;;985.28;920.22;;;;;;;10.91;48.05;101237.84;685262;28;46245;-67
2022/04/20 00:02:04;;;;;;;983.28;918.28;;;;;;;10.93;47.95;101244.78;681425;28;69398;-69
2022/04/20 00:02:25;;;;;;;977.92;913.00;;;;;;;10.93;48.01;101242.09;683084;28;21714;-70
2022/04/20 00:02:47;;;;;;;979.20;914.33;;;;;;;10.92;47.92;101251.19;683162;28;23454;-69
2022/04/20 00:03:08;;;;;;;982.20;917.25;;;;;;;10.92;48.33;101236.84;681699;28;70365;-70
2022/04/20 00:03:29;;;;;;;978.85;913.85;;;;;;;10.95;48.01;101239.22;682762;28;23445;-70
2022/04/20 00:03:50;;;;;;;956.63;892.47;;;;;;;10.95;47.92;101241.94;683897;28;22393;-69
2022/04/20 00:04:12;;;;;;;964.55;900.10;;;;;;;10.95;48.29;101245.47;685784;28;21478;-69
2022/04/20 00:04:34;;;;;;;966.72;902.25;;;;;;;10.96;48.25;101246.31;685144;28;45091;-68
2022/04/20 00:04:55;;;;;;;972.78;908.25;;;;;;;10.95;48.02;101250.88;685119;28;45286;-69
2022/04/20 00:05:17;;;;;;;977.20;912.42;;;;;;;10.98;48.10;101261.34;685419;28;24201;-69
2022/04/20 00:05:38;;;;;;;978.45;913.55;;;;;;;10.97;47.91;101248.88;685394;28;28545;-69
2022/04/20 00:05:59;;;;;;;988.92;923.70;;;;;;;10.96;48.13;101249.88;685991;28;21662;-69
2022/04/20 00:06:21;;;;;;;1000.63;935.05;;;;;;;10.99;48.15;101248.69;685223;28;22455;-67
2022/04/20 00:06:42;;;;;;;989.13;924.00;;;;;;;10.98;47.88;101249.69;682755;28;23566;-70
2022/04/20 00:07:04;;;;;;;987.67;922.70;;;;;;;10.97;48.27;101251.56;682513;28;45265;-68
2022/04/20 00:07:26;;;;;;;986.78;921.85;;;;;;;10.95;48.14;101250.88;682074;28;45214;-69
2022/04/20 00:07:47;;;;;;;984.05;919.25;;;;;;;10.96;48.17;101254.44;682177;28;46342;-68
2022/04/20 00:08:08;;;;;;;981.22;916.50;;;;;;;10.92;48.01;101248.50;683380;28;22396;-69
2022/04/20 00:08:30;;;;;;;981.33;916.45;;;;;;;10.93;48.24;101250.19;683398;28;22379;-69
2022/04/20 00:08:53;;;;;;;967.00;902.55;;;;;;;10.95;48.34;101252.72;685018;28;44264;-70
2022/04/20 00:09:14;;;;;;;951.65;887.67;;;;;;;10.94;47.94;101253.75;684257;28;70845;-69
2022/04/20 00:09:35;;;;;;;970.70;905.90;;;;;;;10.94;48.22;101257.31;685155;28;22417;-69
2022/04/20 00:09:57;;;;;;;969.33;904.65;;;;;;;10.95;48.19;101252.72;685583;28;21532;-70
2022/04/20 00:10:18;;;;;;;972.25;907.65;;;;;;;10.94;48.05;101257.31;686396;28;1578;-70
2022/04/20 00:10:39;;;;;;;961.60;897.28;;;;;;;10.94;48.28;101257.31;685907;28;22153;-69
2022/04/20 00:11:00;;;;;;;971.03;906.42;;;;;;;10.90;47.97;101252.41;686072;28;22374;-69
2022/04/20 00:11:21;;;;;;;971.50;906.85;;;;;;;10.90;48.17;101258.63;681250;28;44849;-69
2022/04/20 00:11:45;;;;;;;971.80;907.13;;;;;;;10.92;48.17;101256.59;683174;28;23462;-69
2022/04/20 00:12:08;;;;;;;965.13;900.80;;;;;;;10.90;48.12;101255.94;680746;28;90459;-69
2022/04/20 00:12:29;;;;;;;968.20;903.83;;;;;;;10.92;48.07;101255.78;681507;28;46291;-69
2022/04/20 00:12:51;;;;;;;984.00;919.00;;;;;;;10.92;48.04;101262.00;682052;28;46817;-70
2022/04/20 00:13:12;;;;;;;978.33;913.58;;;;;;;10.91;47.76;101254.06;683001;28;45251;-69
2022/04/20 00:13:34;;;;;;;979.00;914.15;;;;;;;10.91;47.95;101264.88;685847;28;21329;-69
2022/04/20 00:13:55;;;;;;;980.60;915.80;;;;;;;10.89;48.03;101256.94;685697;28;22283;-68
2022/04/20 00:14:17;;;;;;;976.60;911.90;;;;;;;10.89;48.00;101259.63;685999;28;21680;-67
2022/04/20 00:14:38;;;;;;;986.40;921.28;;;;;;;10.90;48.05;101260.50;685058;28;46257;-70
2022/04/20 00:15:02;;;;;;;985.40;920.40;;;;;;;10.88;47.97;101257.09;683820;28;92911;-69
2022/04/20 00:15:24;;;;;;;986.58;921.50;;;;;;;10.87;48.32;101256.28;684656;28;45266;-69
2022/04/20 00:15:46;;;;;;;972.80;908.33;;;;;;;10.87;48.15;101253.56;684990;28;44367;-68
2022/04/20 00:16:07;;;;;;;956.17;892.38;;;;;;;10.86;47.96;101264.53;680465;29;23432;-70
2022/04/20 00:16:28;;;;;;;954.40;890.50;;;;;;;10.81;48.17;101252.41;679938;29;22382;-70
2022/04/20 00:16:49;;;;;;;959.53;895.45;;;;;;;10.85;47.98;101252.06;680824;29;23457;-70
2022/04/20 00:17:11;;;;;;;964.95;900.60;;;;;;;10.82;48.03;101248.66;680227;29;22465;-70
2022/04/20 00:17:32;;;;;;;966.70;902.13;;;;;;;10.85;48.21;101246.66;679720;28;45065;-70
2022/04/20 00:17:53;;;;;;;965.65;901.33;;;;;;;10.86;48.25;101260.00;681701;28;23731;-68
2022/04/20 00:18:14;;;;;;;974.78;910.10;;;;;;;10.87;48.17;101247.31;685913;28;22400;-69
2022/04/20 00:18:35;;;;;;;982.15;917.17;;;;;;;10.89;48.18;101256.09;685756;28;21546;-68
2022/04/20 00:18:57;;;;;;;989.60;924.40;;;;;;;10.87;48.19;101256.28;685595;28;21526;-70
2022/04/20 00:19:18;;;;;;;988.63;923.45;;;;;;;10.85;48.40;101252.91;684745;28;44445;-70
2022/04/20 00:19:39;;;;;;;984.30;919.03;;;;;;;10.87;48.27;101248.16;685365;28;21494;-68
2022/04/20 00:20:02;;;;;;;983.90;918.72;;;;;;;10.86;48.19;101254.59;685999;28;22275;-68
2022/04/20 00:20:23;;;;;;;976.80;912.05;;;;;;;10.87;48.21;101253.56;684199;28;67474;-70
2022/04/20 00:20:44;;;;;;;979.97;915.08;;;;;;;10.83;48.02;101249.53;685876;28;22182;-70
2022/04/20 00:21:05;;;;;;;979.67;914.88;;;;;;;10.87;47.93;101252.72;685949;28;24203;-70
2022/04/20 00:21:26;;;;;;;980.28;915.40;;;;;;;10.87;48.30;101253.56;684521;28;22323;-68
2022/04/20 00:21:48;;;;;;;977.38;912.65;;;;;;;10.88;48.20;101249.88;685762;28;21296;-69
2022/04/20 00:22:09;;;;;;;969.40;905.00;;;;;;;10.87;48.04;101252.72;683523;28;69415;-69
2022/04/20 00:22:31;;;;;;;953.72;889.83;;;;;;;10.89;47.74;101246.13;685705;28;21480;-69
2022/04/20 00:22:52;;;;;;;963.75;899.47;;;;;;;10.87;47.90;101248.16;685957;28;21521;-70
2022/04/20 00:23:13;;;;;;;974.33;909.65;;;;;;;10.90;48.05;101252.41;685132;28;46309;-68
2022/04/20 00:23:35;;;;;;;962.72;898.50;;;;;;;10.90;47.89;101252.41;685801;28;21320;-68
2022/04/20 00:23:57;;;;;;;958.47;894.45;;;;;;;10.90;47.87;101253.22;685740;28;23482;-68
2022/04/20 00:24:19;;;;;;;956.38;892.40;;;;;;;10.91;48.07;101248.66;685258;28;44359;-71
2022/04/20 00:24:40;;;;;;;966.08;901.83;;;;;;;10.91;47.81;101254.06;685175;28;46257;-68
2022/04/20 00:25:01;;;;;;;978.50;913.88;;;;;;;10.93;47.80;101249.38;686064;28;22381;-68
2022/04/20 00:25:22;;;;;;;983.25;918.38;;;;;;;10.94;48.04;101251.03;685039;28;45293;-68
2022/04/20 00:25:44;;;;;;;986.03;920.95;;;;;;;10.94;48.00;101256.44;682617;28;23421;-68
2022/04/20 00:26:05;;;;;;;986.38;921.28;;;;;;;10.93;48.15;101244.78;682239;28;45320;-70
2022/04/20 00:26:26;;;;;;;985.95;920.75;;;;;;;10.93;48.21;101246.66;682078;28;23677;-68
2022/04/20 00:26:48;;;;;;;975.22;910.50;;;;;;;10.90;47.86;101247.81;682934;28;22336;-69
2022/04/20 00:27:10;;;;;;;984.30;919.30;;;;;;;10.90;48.03;101247.00;682752;28;22431;-68
2022/04/20 00:27:32;;;;;;;977.22;912.45;;;;;;;10.91;47.96;101248.66;682475;28;46328;-69
2022/04/20 00:27:53;;;;;;;975.65;910.97;;;;;;;10.91;48.04;101252.22;681775;28;46332;-71
2022/04/20 00:28:14;;;;;;;981.70;916.80;;;;;;;10.91;48.09;101254.06;683135;28;23467;-69
2022/04/20 00:28:36;;;;;;;959.45;895.33;;;;;;;10.90;48.24;101250.53;682885;28;22220;-69
2022/04/20 00:28:57;;;;;;;947.45;883.78;;;;;;;10.87;48.02;101250.88;681045;28;70244;-71
2022/04/20 00:29:18;;;;;;;971.22;906.70;;;;;;;10.91;48.03;101254.06;678167;29;21550;-68
2022/04/20 00:29:39;;;;;;;973.13;908.25;;;;;;;10.91;47.98;101259.47;677853;28;22471;-70
2022/04/20 00:30:01;;;;;;;984.00;918.95;;;;;;;10.92;48.18;101256.59;680312;29;23568;-70
2022/04/20 00:30:22;;;;;;;981.15;916.33;;;;;;;10.93;48.18;101261.00;680042;28;46107;-70
2022/04/20 00:30:43;;;;;;;972.53;907.90;;;;;;;10.93;48.14;101262.88;677413;29;23738;-69
2022/04/20 00:31:04;;;;;;;964.70;900.40;;;;;;;10.92;48.27;101256.59;678529;28;22224;-68
2022/04/20 00:31:26;;;;;;;964.13;899.83;;;;;;;10.91;48.11;101263.03;678973;29;22418;-69
2022/04/20 00:31:49;;;;;;;972.97;908.45;;;;;;;10.90;48.25;101264.03;678939;29;46322;-70
2022/04/20 00:32:10;;;;;;;981.97;916.92;;;;;;;10.89;48.29;101259.63;673590;29;67411;-70
2022/04/20 00:32:31;;;;;;;982.45;917.55;;;;;;;10.88;48.33;101260.66;680416;29;1821;-71
2022/04/20 00:32:53;;;;;;;981.17;916.50;;;;;;;10.88;48.42;101254.41;680418;29;22386;-71
2022/04/20 00:33:15;;;;;;;984.20;919.42;;;;;;;10.86;48.44;101265.41;680157;28;45276;-70
2022/04/20 00:33:37;;;;;;;979.58;914.85;;;;;;;10.86;48.11;101259.13;681737;28;46361;-68
2022/04/20 00:33:58;;;;;;;979.58;914.90;;;;;;;10.84;48.16;101255.75;682250;28;45033;-67
2022/04/20 00:34:20;;;;;;;980.88;915.95;;;;;;;10.83;48.07;101257.63;683307;28;22387;-71
2022/04/20 00:34:41;;;;;;;967.22;902.92;;;;;;;10.80;48.51;101252.56;685072;28;45417;-68
2022/04/20 00:35:03;;;;;;;952.20;888.35;;;;;;;10.80;48.25;101256.09;685904;28;23484;-68
2022/04/20 00:35:24;;;;;;;964.47;900.20;;;;;;;10.79;48.21;101259.78;684649;28;44378;-68
2022/04/20 00:35:46;;;;;;;963.80;899.58;;;;;;;10.78;48.46;101258.13;683633;28;2737;-70
2022/04/20 00:36:09;;;;;;;953.95;890.15;;;;;;;10.79;48.66;101258.97;682213;28;45226;-71
2022/04/20 00:36:30;;;;;;;977.17;912.38;;;;;;;10.78;48.40;101260.81;677784;28;69424;-69
2022/04/20 00:36:53;;;;;;;973.80;909.30;;;;;;;10.77;48.53;101259.13;680795;29;21351;-71
2022/04/20 00:37:14;;;;;;;959.78;895.67;;;;;;;10.78;48.29;101263.53;672140;29;92367;-69
2022/04/20 00:37:35;;;;;;;964.08;899.78;;;;;;;10.78;48.35;101252.72;677005;29;22405;-69
2022/04/20 00:37:56;;;;;;;975.95;911.38;;;;;;;10.77;48.59;101259.13;678159;29;23176;-71
2022/04/20 00:38:18;;;;;;;994.42;929.13;;;;;;;10.81;48.72;101256.94;678843;28;23476;-70
2022/04/20 00:38:40;;;;;;;991.83;926.65;;;;;;;10.81;48.66;101254.22;681171;28;22426;-70
2022/04/20 00:39:02;;;;;;;980.92;916.13;;;;;;;10.81;48.66;101257.78;680313;28;46346;-69
2022/04/20 00:39:23;;;;;;;978.47;913.72;;;;;;;10.78;48.66;101255.44;683915;28;66797;-70
2022/04/20 00:39:44;;;;;;;969.42;904.70;;;;;;;10.81;48.57;101267.75;684917;28;22454;-70
2022/04/20 00:40:08;;;;;;;969.38;904.95;;;;;;;10.78;48.40;101252.72;685812;28;20825;-71
2022/04/20 00:40:29;;;;;;;955.95;891.95;;;;;;;10.83;48.38;101263.03;684018;28;69373;-70
2022/04/20 00:40:50;;;;;;;979.08;914.20;;;;;;;10.82;48.34;101254.06;681446;28;23762;-70
2022/04/20 00:41:12;;;;;;;975.78;911.08;;;;;;;10.82;48.25;101254.06;680380;29;23448;-71
2022/04/20 00:41:44;;;;;;;985.65;920.58;;;;;;;10.86;48.46;101260.00;676136;29;116735;-71
2022/04/20 00:42:06;;;;;;;964.40;900.20;;;;;;;10.86;48.43;101254.59;675726;29;69423;-70
2022/04/20 00:42:27;;;;;;;965.42;901.20;;;;;;;10.87;48.41;101258.13;677036;29;23440;-70
2022/04/20 00:42:48;;;;;;;962.55;898.42;;;;;;;10.87;48.47;101258.97;678557;29;46204;-70
2022/04/20 00:43:10;;;;;;;952.28;888.45;;;;;;;10.88;48.22;101251.69;681295;29;22405;-71
2022/04/20 00:43:31;;;;;;;959.42;895.35;;;;;;;10.88;48.55;101254.41;680259;29;46380;-71
2022/04/20 00:43:53;;;;;;;978.42;913.65;;;;;;;10.87;48.44;101247.31;681376;28;22242;-70
2022/04/20 00:44:15;;;;;;;994.15;928.75;;;;;;;10.89;48.18;101256.94;683636;28;23441;-71
2022/04/20 00:44:36;;;;;;;998.10;932.45;;;;;;;10.87;48.25;101250.03;679883;29;45266;-70
2022/04/20 00:44:57;;;;;;;994.15;928.72;;;;;;;10.89;48.36;101256.09;677810;29;23478;-71
2022/04/20 00:45:19;;;;;;;991.08;925.67;;;;;;;10.87;48.33;101250.03;676325;29;23260;-70
2022/04/20 00:45:42;;;;;;;977.42;912.55;;;;;;;10.82;48.33;101248.66;672542;29;44176;-70
2022/04/20 00:46:05;;;;;;;959.63;895.42;;;;;;;10.87;48.35;101252.72;672086;29;70275;-72
2022/04/20 00:46:27;;;;;;;971.90;907.10;;;;;;;10.85;48.36;101254.75;671030;29;69893;-70
2022/04/20 00:46:49;;;;;;;971.95;907.47;;;;;;;10.84;48.53;101245.78;675951;29;38470;-69
2022/04/20 00:47:11;;;;;;;971.83;907.25;;;;;;;10.85;48.52;101249.34;678966;29;44359;-70
2022/04/20 00:47:35;;;;;;;966.42;902.03;;;;;;;10.83;48.24;101246.81;677532;29;67414;-71
2022/04/20 00:47:57;;;;;;;946.83;883.20;;;;;;;10.84;48.33;101247.66;679553;29;89979;-70
2022/04/20 00:48:18;;;;;;;957.75;893.58;;;;;;;10.80;48.50;101239.03;679974;29;22397;-70
2022/04/20 00:48:41;;;;;;;961.22;897.10;;;;;;;10.82;48.29;101251.34;678015;29;1611;-71
2022/04/20 00:49:02;;;;;;;958.03;893.95;;;;;;;10.78;48.38;101241.91;675409;29;69440;-69
2022/04/20 00:49:24;;;;;;;977.35;912.60;;;;;;;10.80;48.37;101253.41;675751;29;22204;-71
2022/04/20 00:49:47;;;;;;;977.83;912.85;;;;;;;10.82;48.38;101253.22;675506;29;70164;-68
2022/04/20 00:50:09;;;;;;;986.03;920.97;;;;;;;10.78;48.49;101249.16;673690;29;69981;-69
2022/04/20 00:50:31;;;;;;;982.00;917.13;;;;;;;10.81;48.49;101249.69;673316;29;46348;-69
2022/04/20 00:50:52;;;;;;;962.88;898.67;;;;;;;10.80;48.44;101244.44;673994;29;46393;-68
2022/04/20 00:51:14;;;;;;;960.25;896.10;;;;;;;10.83;48.49;101254.94;674412;29;21307;-70
2022/04/20 00:51:36;;;;;;;987.75;922.55;;;;;;;10.81;48.48;101257.78;675109;29;45329;-69
2022/04/20 00:51:57;;;;;;;974.20;909.67;;;;;;;10.82;48.49;101251.34;678327;29;21606;-70
2022/04/20 00:52:21;;;;;;;980.63;915.72;;;;;;;10.81;48.49;101252.41;679216;28;70438;-70
2022/04/20 00:52:42;;;;;;;973.47;908.80;;;;;;;10.79;48.25;101242.75;679782;28;69103;-69
2022/04/20 00:53:06;;;;;;;972.53;907.88;;;;;;;10.80;48.23;101249.84;677629;29;92426;-68
2022/04/20 00:53:28;;;;;;;972.20;907.58;;;;;;;10.79;48.45;101259.78;676276;29;23488;-70
2022/04/20 00:53:51;;;;;;;987.88;922.72;;;;;;;10.78;48.40;101249.16;675198;29;44215;-69
2022/04/20 00:54:14;;;;;;;988.30;923.10;;;;;;;10.79;48.31;101259.78;673815;29;92239;-69
2022/04/20 00:54:36;;;;;;;986.80;921.70;;;;;;;10.78;48.27;101255.44;676942;29;45569;-70
2022/04/20 00:54:57;;;;;;;957.92;893.78;;;;;;;10.77;48.26;101252.88;676722;29;22414;-69
2022/04/20 00:55:19;;;;;;;972.00;907.38;;;;;;;10.75;48.32;101254.88;678204;29;21590;-70
2022/04/20 00:55:41;;;;;;;971.85;907.17;;;;;;;10.74;48.58;101255.91;674785;29;45252;-68
2022/04/20 00:56:04;;;;;;;985.42;920.33;;;;;;;10.73;48.42;101255.06;673175;29;90547;-70
2022/04/20 00:56:25;;;;;;;970.63;906.08;;;;;;;10.75;48.74;101253.06;672350;29;22115;-69
2022/04/20 00:56:47;;;;;;;981.53;916.63;;;;;;;10.75;48.35;101253.06;674766;29;21533;-67
2022/04/20 00:57:09;;;;;;;986.58;921.42;;;;;;;10.74;48.48;101258.63;675407;29;69027;-70
2022/04/20 00:57:31;;;;;;;978.22;913.35;;;;;;;10.70;48.46;101252.69;677670;29;45276;-69
2022/04/20 00:57:52;;;;;;;978.33;913.58;;;;;;;10.76;48.31;101249.31;679125;29;22361;-70
2022/04/20 00:58:13;;;;;;;983.85;918.92;;;;;;;10.78;48.17;101251.84;676599;29;22262;-70
2022/04/20 00:58:36;;;;;;;988.03;922.83;;;;;;;10.79;48.23;101259.78;676283;29;21516;-69
2022/04/20 00:58:59;;;;;;;977.80;912.90;;;;;;;10.79;48.19;101250.84;671697;29;92236;-68
2022/04/20 00:59:23;;;;;;;986.53;921.42;;;;;;;10.77;48.36;101261.00;676701;29;46366;-70
2022/04/20 00:59:45;;;;;;;991.95;926.55;;;;;;;10.76;48.55;101253.88;673345;29;90714;-70
2022/04/20 01:00:08;;;;;;;989.47;924.42;;;;;;;10.73;48.52;101244.25;677552;29;69395;-67
2022/04/20 01:00:37;;;;;;;994.00;928.55;;;;;;;10.76;48.28;101259.28;675812;29;137828;-68
2022/04/20 01:00:59;;;;;;;977.17;912.33;;;;;;;10.76;48.56;101251.19;681284;28;44059;-67
2022/04/20 01:01:21;;;;;;;978.90;913.95;;;;;;;10.77;48.64;101253.72;678094;28;23318;-69
2022/04/20 01:01:42;;;;;;;969.20;904.55;;;;;;;10.76;48.55;101256.59;674573;29;44438;-69
2022/04/20 01:02:04;;;;;;;981.67;916.75;;;;;;;10.74;48.76;101250.50;677044;29;44413;-70
2022/04/20 01:02:26;;;;;;;979.83;914.88;;;;;;;10.75;48.51;101252.19;678167;29;44122;-69
2022/04/20 01:02:48;;;;;;;980.00;915.00;;;;;;;10.75;48.39;101260.28;677730;29;44319;-69
2022/04/20 01:03:10;;;;;;;989.40;924.10;;;;;;;10.75;48.65;101249.47;678245;29;45244;-69
2022/04/20 01:03:58;;;;;;;961.38;897.25;;;;;;;10.75;48.65;101247.66;670152;29;137184;-69
2022/04/20 01:04:27;;;;;;;976.35;911.45;;;;;;;10.73;48.48;101254.22;668927;29;137254;-68
2022/04/20 01:05:05;;;;;;;976.03;911.25;;;;;;;10.68;48.56;101243.91;677459;28;137672;-68
2022/04/20 01:05:36;;;;;;;1005.60;939.33;;;;;;;10.73;48.47;101252.34;678629;28;136813;-70
2022/04/20 01:06:10;;;;;;;1010.75;944.17;;;;;;;10.75;48.48;101250.34;675612;29;137805;-69
2022/04/20 01:06:52;;;;;;;1004.03;937.83;;;;;;;10.74;48.77;101248.66;673426;29;157281;-69
2022/04/20 01:07:36;;;;;;;988.17;922.75;;;;;;;10.74;48.71;101251.34;671587;29;137274;-69
2022/04/20 01:08:19;;;;;;;1009.63;943.22;;;;;;;10.70;48.77;101244.56;669398;29;135953;-68
2022/04/20 01:08:54;;;;;;;990.35;925.22;;;;;;;10.73;48.69;101252.34;678421;28;137762;-68
2022/04/20 01:09:44;;;;;;;961.90;897.53;;;;;;;10.73;48.96;101251.50;675763;29;136489;-68
2022/04/20 01:10:19;;;;;;;989.38;924.17;;;;;;;10.73;48.67;101254.22;673461;29;136184;-70
2022/04/20 01:11:00;;;;;;;990.90;925.55;;;;;;;10.72;48.86;101250.69;676376;29;137234;-67
2022/04/20 01:11:30;;;;;;;993.70;928.10;;;;;;;10.71;48.91;101254.38;676020;28;136037;-70
2022/04/20 01:12:00;;;;;;;996.60;931.08;;;;;;;10.73;48.90;101259.63;679179;28;137593;-70
2022/04/20 01:12:34;;;;;;;985.75;920.63;;;;;;;10.71;49.01;101246.28;678625;28;160213;-69
2022/04/20 01:13:21;;;;;;;984.22;919.30;;;;;;;10.73;48.75;101263.16;677152;28;136841;-67
2022/04/20 01:14:01;;;;;;;976.95;912.20;;;;;;;10.71;48.81;101259.78;676367;29;138283;-69
2022/04/20 01:14:47;;;;;;;976.92;912.10;;;;;;;10.65;48.85;101252.34;679050;28;135810;-69
2022/04/20 01:15:41;;;;;;;987.03;921.97;;;;;;;10.72;49.10;101249.81;678659;28;137663;-67
2022/04/20 01:16:12;;;;;;;978.50;913.67;;;;;;;10.73;49.00;101256.91;680107;28;160609;-69
2022/04/20 01:16:52;;;;;;;977.10;912.25;;;;;;;10.73;49.16;101255.06;679907;28;157318;-69
2022/04/20 01:17:25;;;;;;;981.85;917.00;;;;;;;10.72;48.80;101260.63;680636;28;138093;-70
2022/04/20 01:18:09;;;;;;;973.22;908.83;;;;;;;10.68;49.20;101248.47;677302;28;135873;-68
2022/04/20 01:18:55;;;;;;;956.58;892.60;;;;;;;10.68;49.01;101246.59;668457;29;137569;-69
2022/04/20 01:19:38;;;;;;;987.50;922.10;;;;;;;10.64;49.04;101242.53;676912;28;158935;-69
2022/04/20 01:20:26;;;;;;;986.60;921.53;;;;;;;10.67;49.23;101258.41;678810;28;138072;-67
2022/04/20 01:21:18;;;;;;;981.53;916.60;;;;;;;10.67;49.21;101250.31;677513;28;137720;-69
2022/04/20 01:21:52;;;;;;;979.78;914.90;;;;;;;10.67;49.35;101247.59;676733;29;137379;-70
2022/04/20 01:22:40;;;;;;;988.05;922.95;;;;;;;10.67;49.11;101249.47;675076;28;160670;-69
2022/04/20 01:23:21;;;;;;;978.65;913.72;;;;;;;10.67;49.28;101244.06;678415;28;158871;-68
2022/04/20 01:24:02;;;;;;;956.75;892.75;;;;;;;10.61;49.24;101238.31;681579;28;137032;-69
2022/04/20 01:24:47;;;;;;;986.75;921.70;;;;;;;10.67;49.39;101246.78;675846;29;137462;-70
2022/04/20 01:25:28;;;;;;;993.00;927.67;;;;;;;10.63;49.32;101240.88;675552;29;137517;-69
2022/04/20 01:26:09;;;;;;;984.00;919.10;;;;;;;10.65;49.49;101238.84;678431;28;136021;-69
2022/04/20 01:26:51;;;;;;;992.70;927.63;;;;;;;10.58;49.37;101233.25;668289;29;157295;-70
2022/04/20 01:27:32;;;;;;;986.55;921.53;;;;;;;10.64;49.25;101247.94;666025;29;137370;-69
2022/04/20 01:28:12;;;;;;;987.10;922.00;;;;;;;10.66;49.34;101247.78;680781;28;136012;-69
2022/04/20 01:28:46;;;;;;;965.63;901.28;;;;;;;10.63;49.21;101246.25;681202;28;136009;-68
2022/04/20 01:29:18;;;;;;;969.58;905.05;;;;;;;10.64;49.59;101243.41;675370;29;158950;-69
2022/04/20 01:29:53;;;;;;;977.13;912.15;;;;;;;10.65;49.55;101244.25;676409;29;137824;-70
2022/04/20 01:30:31;;;;;;;968.95;904.55;;;;;;;10.64;49.46;101237.13;673910;29;138591;-69
2022/04/20 01:31:18;;;;;;;962.85;898.70;;;;;;;10.60;49.40;101233.09;670198;29;136003;-70
2022/04/20 01:32:05;;;;;;;968.40;903.97;;;;;;;10.67;49.29;101238.66;678362;28;137375;-68
2022/04/20 01:32:33;;;;;;;976.20;911.40;;;;;;;10.67;49.42;101250.31;678949;28;137531;-69
2022/04/20 01:33:07;;;;;;;980.38;915.42;;;;;;;10.67;49.37;101234.09;673139;29;158886;-67
2022/04/20 01:33:33;;;;;;;976.20;911.40;;;;;;;10.69;49.31;101244.75;674128;29;137631;-69
2022/04/20 01:33:54;;;;;;;964.80;900.53;;;;;;;10.66;49.45;101239.66;677616;29;21512;-67
2022/04/20 01:34:15;;;;;;;978.08;913.28;;;;;;;10.71;49.34;101243.56;676134;29;21497;-70
2022/04/20 01:34:38;;;;;;;969.70;905.28;;;;;;;10.71;49.29;101240.03;674902;29;23474;-70
2022/04/20 01:34:59;;;;;;;968.33;904.05;;;;;;;10.70;49.41;101241.03;673906;29;69375;-69
2022/04/20 01:35:20;;;;;;;986.13;921.05;;;;;;;10.72;49.40;101242.56;676090;29;21527;-70
2022/04/20 01:35:42;;;;;;;988.38;923.22;;;;;;;10.71;49.19;101242.75;676178;29;23318;-69
2022/04/20 01:36:04;;;;;;;990.67;925.47;;;;;;;10.74;49.63;101251.34;675931;29;44339;-69
2022/04/20 01:36:27;;;;;;;982.85;917.85;;;;;;;10.74;49.45;101248.66;674966;28;46023;-69
2022/04/20 01:36:49;;;;;;;973.33;908.67;;;;;;;10.69;49.48;101239.34;677305;29;69438;-68
2022/04/20 01:37:10;;;;;;;978.10;913.20;;;;;;;10.73;49.57;101244.25;676204;29;45225;-68
2022/04/20 01:37:32;;;;;;;975.28;910.50;;;;;;;10.76;49.35;101248.47;672743;29;21538;-69
2022/04/20 01:37:53;;;;;;;978.33;913.53;;;;;;;10.70;49.17;101243.75;673470;29;45181;-69
2022/04/20 01:38:14;;;;;;;943.75;880.17;;;;;;;10.71;49.66;101245.44;676456;29;4488;-70
2022/04/20 01:38:36;;;;;;;960.72;896.42;;;;;;;10.74;49.44;101254.06;676831;29;45274;-68
2022/04/20 01:38:58;;;;;;;972.25;907.67;;;;;;;10.73;49.37;101249.66;677353;29;22381;-70
2022/04/20 01:39:19;;;;;;;986.33;921.17;;;;;;;10.71;49.45;101246.28;679613;29;45270;-69
2022/04/20 01:39:41;;;;;;;982.35;917.38;;;;;;;10.72;49.47;101252.50;679528;28;46325;-67
2022/04/20 01:40:02;;;;;;;974.10;909.47;;;;;;;10.72;49.29;101252.50;683525;28;22405;-69
2022/04/20 01:40:25;;;;;;;974.20;909.58;;;;;;;10.70;49.69;101241.88;680210;28;46333;-70
2022/04/20 01:40:46;;;;;;;980.80;915.83;;;;;;;10.72;49.53;101249.81;677023;29;47061;-69
2022/04/20 01:41:07;;;;;;;980.22;915.30;;;;;;;10.71;49.71;101245.44;676316;29;46417;-69
2022/04/20 01:41:28;;;;;;;967.08;902.60;;;;;;;10.70;49.52;101251.84;675421;29;22396;-69
2022/04/20 01:41:51;;;;;;;975.92;911.20;;;;;;;10.67;49.66;101244.06;676322;29;21506;-69
2022/04/20 01:42:12;;;;;;;976.95;912.22;;;;;;;10.69;49.61;101245.59;675118;29;69304;-68
2022/04/20 01:42:39;;;;;;;968.85;904.45;;;;;;;10.69;49.83;101250.16;675849;29;138154;-70
2022/04/20 01:43:04;;;;;;;960.63;896.30;;;;;;;10.67;49.64;101238.66;677082;29;90723;-69
2022/04/20 01:43:25;;;;;;;974.67;909.85;;;;;;;10.68;49.36;101243.91;678167;28;46348;-69
2022/04/20 01:44:22;;;;;;;978.92;914.08;;;;;;;10.71;49.55;101237.34;678498;28;137782;-68
2022/04/20 01:45:10;;;;;;;983.65;918.67;;;;;;;10.66;49.75;101243.25;667959;29;137729;-70
2022/04/20 01:45:50;;;;;;;959.50;895.25;;;;;;;10.65;49.84;101244.25;670842;28;138285;-69
2022/04/20 01:46:30;;;;;;;973.45;908.75;;;;;;;10.67;49.95;101247.59;678082;28;136839;-69
2022/04/20 01:47:18;;;;;;;978.13;913.38;;;;;;;10.67;49.74;101253.00;678142;28;137432;-69
2022/04/20 01:48:06;;;;;;;946.50;882.80;;;;;;;10.62;50.10;101240.00;675813;29;135867;-68
2022/04/20 01:48:46;;;;;;;963.28;899.08;;;;;;;10.60;49.77;101239.31;678807;28;137519;-69
2022/04/20 01:49:26;;;;;;;973.55;908.88;;;;;;;10.59;50.00;101239.50;678877;28;137745;-69
2022/04/20 01:50:08;;;;;;;986.40;921.25;;;;;;;10.56;50.01;101245.22;679170;28;137144;-69
2022/04/20 01:51:47;;;;;;;981.90;916.92;;;;;;;10.48;50.52;101237.94;675286;28;157156;-69
2022/04/20 01:52:28;;;;;;;979.17;914.22;;;;;;;10.44;50.63;101234.72;675176;29;160631;-70
2022/04/20 01:53:02;;;;;;;988.33;923.10;;;;;;;10.47;50.71;101244.38;678809;28;137893;-67
2022/04/20 01:53:42;;;;;;;957.88;893.78;;;;;;;10.43;50.34;101238.44;679036;28;137312;-68
2022/04/20 01:54:19;;;;;;;956.83;892.70;;;;;;;10.45;50.75;101241.84;678208;28;161215;-69
2022/04/20 01:54:46;;;;;;;964.97;900.47;;;;;;;10.46;50.65;101243.50;679420;28;137883;-69
2022/04/20 01:55:29;;;;;;;976.95;912.22;;;;;;;10.48;50.66;101234.41;677978;28;160619;-70
2022/04/20 01:56:17;;;;;;;984.88;919.80;;;;;;;10.45;50.66;101240.97;677889;28;137400;-69
2022/04/20 01:56:58;;;;;;;999.65;934.10;;;;;;;10.45;50.77;101236.44;681686;28;137355;-69
2022/04/20 01:57:19;;;;;;;991.90;926.45;;;;;;;10.46;50.78;101239.97;684379;28;45322;-69
2022/04/20 01:58:15;;;;;;;968.58;904.33;;;;;;;10.48;50.96;101242.50;676846;28;137795;-70
2022/04/20 01:59:07;;;;;;;964.33;900.03;;;;;;;10.46;50.95;101234.56;680992;28;137531;-70
2022/04/20 01:59:38;;;;;;;970.50;905.67;;;;;;;10.48;50.81;101237.09;677968;28;137374;-69